createdAt,value
2023-03-06T00:00:14.848Z,100954.69
2023-03-06T00:02:41.372Z,100952.78
2023-03-06T00:05:07.948Z,100947.09
2023-03-06T00:07:34.456Z,100942.22
2023-03-06T00:10:01.145Z,100932.97
2023-03-06T00:12:27.730Z,100932.97
2023-03-06T00:14:54.237Z,100922.38
2023-03-06T00:17:20.771Z,100930.53
2023-03-06T00:19:47.285Z,100925.34
2023-03-06T00:22:15.342Z,100921.84
2023-03-06T00:24:43.049Z,100929.16
2023-03-06T00:27:10.119Z,100922.13
2023-03-06T00:29:36.820Z,100925.91
2023-03-06T00:32:03.545Z,100916.69
2023-03-06T00:34:30.087Z,100914.22
2023-03-06T00:36:56.630Z,100921.31
2023-03-06T00:39:23.565Z,100909.59
2023-03-06T00:41:50.107Z,100906.06
2023-03-06T00:44:16.687Z,100899.28
2023-03-06T00:46:43.300Z,100889.50
2023-03-06T00:49:09.840Z,100892.50
2023-03-06T00:51:36.308Z,100887.06
2023-03-06T00:54:02.864Z,100887.88
2023-03-06T00:56:30.142Z,100883.78
2023-03-06T00:58:56.684Z,100887.06
2023-03-06T01:01:23.312Z,100881.06
2023-03-06T01:03:50.006Z,100880.28
2023-03-06T01:06:17.613Z,100883.28
2023-03-06T01:08:44.130Z,100882.47
2023-03-06T01:11:10.683Z,100883.28
2023-03-06T01:13:37.257Z,100874.56
2023-03-06T01:16:13.111Z,100875.38
2023-03-06T01:18:39.816Z,100875.38
2023-03-06T01:21:07.667Z,100874.31
2023-03-06T01:23:34.476Z,100873.75
2023-03-06T01:26:01.287Z,100869.13
2023-03-06T01:28:28.280Z,100868.59
2023-03-06T01:30:55.012Z,100867.78
2023-03-06T01:33:21.629Z,100866.94
2023-03-06T01:35:48.334Z,100858.28
2023-03-06T01:38:14.945Z,100863.72
2023-03-06T01:40:41.442Z,100862.91
2023-03-06T01:43:24.281Z,100860.19
2023-03-06T01:45:50.759Z,100863.16
2023-03-06T01:48:21.203Z,100862.34
2023-03-06T01:50:48.646Z,100849.06
2023-03-06T01:53:15.946Z,100853.94
2023-03-06T01:55:42.760Z,100853.94
2023-03-06T01:58:13.596Z,100847.44
2023-03-06T02:00:40.246Z,100837.38
2023-03-06T02:03:10.470Z,100837.91
2023-03-06T02:05:37.560Z,100832.47
2023-03-06T02:08:05.504Z,100827.88
2023-03-06T02:10:32.482Z,100836.00
2023-03-06T02:12:59.402Z,100837.09
2023-03-06T02:15:29.214Z,100830.03
2023-03-06T02:17:56.340Z,100826.50
2023-03-06T02:20:46.334Z,100827.59
2023-03-06T02:23:40.070Z,100819.44
2023-03-06T02:26:09.198Z,100816.22
2023-03-06T02:28:35.936Z,100809.69
2023-03-06T02:31:02.570Z,100816.47
2023-03-06T02:33:29.720Z,100796.66
2023-03-06T02:35:58.749Z,100796.66
2023-03-06T02:38:29.814Z,100784.16
2023-03-06T02:40:58.118Z,100791.50
2023-03-06T02:43:28.556Z,100779.81
2023-03-06T02:45:55.302Z,100775.47
2023-03-06T02:48:21.909Z,100768.13
2023-03-06T02:50:48.901Z,100778.19
2023-03-06T02:53:18.724Z,100770.84
2023-03-06T02:55:46.487Z,100773.84
2023-03-06T02:58:13.468Z,100760.53
2023-03-06T03:00:40.412Z,100771.13
2023-03-06T03:03:07.450Z,100778.19
2023-03-06T03:05:34.041Z,100770.56
2023-03-06T03:08:00.584Z,100760.81
2023-03-06T03:10:27.409Z,100760.00
2023-03-06T03:12:54.457Z,100765.44
2023-03-06T03:15:20.999Z,100763.25
2023-03-06T03:17:47.573Z,100765.97
2023-03-06T03:20:16.925Z,100762.44
2023-03-06T03:22:47.065Z,100763.25
2023-03-06T03:25:14.516Z,100763.53
2023-03-06T03:27:41.162Z,100757.31
2023-03-06T03:30:09.001Z,100757.31
2023-03-06T03:32:35.672Z,100753.75
2023-03-06T03:35:02.431Z,100743.72
2023-03-06T03:37:28.999Z,100746.69
2023-03-06T03:39:56.440Z,100735.03
2023-03-06T03:42:22.942Z,100722.28
2023-03-06T03:44:49.419Z,100723.38
2023-03-06T03:47:15.999Z,100720.94
2023-03-06T03:49:42.633Z,100726.38
2023-03-06T03:52:09.226Z,100724.69
2023-03-06T03:54:36.603Z,100714.69
2023-03-06T03:57:03.296Z,100717.63
2023-03-06T03:59:29.952Z,100711.41
2023-03-06T04:01:56.607Z,100710.59
2023-03-06T04:04:23.321Z,100698.09
2023-03-06T04:06:49.853Z,100707.88
2023-03-06T04:09:16.354Z,100694.56
2023-03-06T04:11:42.843Z,100699.19
2023-03-06T04:14:09.785Z,100698.09
2023-03-06T04:16:36.393Z,100697.28
2023-03-06T04:19:03.413Z,100708.41
2023-03-06T04:21:30.006Z,100697.28
2023-03-06T04:23:56.557Z,100690.22
2023-03-06T04:26:23.038Z,100694.84
2023-03-06T04:28:49.584Z,100685.09
2023-03-06T04:31:16.188Z,100689.44
2023-03-06T04:33:42.768Z,100672.34
2023-03-06T04:36:20.814Z,100676.94
2023-03-06T04:38:47.347Z,100667.72
2023-03-06T04:41:13.867Z,100666.91
2023-03-06T04:43:40.489Z,100663.38
2023-03-06T04:46:07.101Z,100659.03
2023-03-06T04:48:33.819Z,100658.22
2023-03-06T04:51:00.353Z,100661.47
2023-03-06T04:53:26.925Z,100660.94
2023-03-06T04:55:53.451Z,100662.56
2023-03-06T04:58:20.791Z,100662.03
2023-03-06T05:00:47.360Z,100661.75
2023-03-06T05:03:14.415Z,100657.94
2023-03-06T05:05:41.543Z,100653.88
2023-03-06T05:08:11.223Z,100654.16
2023-03-06T05:10:37.729Z,100659.03
2023-03-06T05:13:05.146Z,100649.78
2023-03-06T05:15:31.615Z,100651.69
2023-03-06T05:17:58.095Z,100658.50
2023-03-06T05:20:24.896Z,100660.38
2023-03-06T05:22:51.410Z,100652.22
2023-03-06T05:25:18.494Z,100662.28
2023-03-06T05:27:44.982Z,100658.75
2023-03-06T05:30:13.817Z,100658.50
2023-03-06T05:32:40.435Z,100654.13
2023-03-06T05:35:07.504Z,100651.41
2023-03-06T05:37:34.042Z,100640.56
2023-03-06T05:40:00.903Z,100649.50
2023-03-06T05:42:28.763Z,100660.09
2023-03-06T05:44:55.299Z,100657.09
2023-03-06T05:47:21.781Z,100659.81
2023-03-06T05:49:48.407Z,100651.41
2023-03-06T05:52:17.692Z,100656.28
2023-03-06T05:54:44.627Z,100647.06
2023-03-06T05:57:11.227Z,100643.25
2023-03-06T05:59:37.822Z,100646.78
2023-03-06T06:02:05.712Z,100647.59
2023-03-06T06:04:32.507Z,100635.66
2023-03-06T06:07:00.676Z,100644.59
2023-03-06T06:09:28.065Z,100648.94
2023-03-06T06:11:58.047Z,100643.50
2023-03-06T06:14:24.812Z,100647.84
2023-03-06T06:16:51.903Z,100643.50
2023-03-06T06:19:21.294Z,100642.69
2023-03-06T06:21:51.313Z,100648.94
2023-03-06T06:24:20.413Z,100641.59
2023-03-06T06:26:47.348Z,100647.03
2023-03-06T06:29:14.025Z,100645.94
2023-03-06T06:31:41.239Z,100637.78
2023-03-06T06:34:09.724Z,100635.91
2023-03-06T06:36:36.847Z,100642.16
2023-03-06T06:39:04.825Z,100660.34
2023-03-06T06:41:46.545Z,100648.66
2023-03-06T06:44:19.664Z,100649.22
2023-03-06T06:49:33.852Z,100646.78
2023-03-06T06:52:00.424Z,100658.44
2023-03-06T06:54:27.336Z,100660.06
2023-03-06T06:56:54.462Z,100653.03
2023-03-06T06:59:23.624Z,100649.50
2023-03-06T07:01:51.461Z,100663.06
2023-03-06T07:04:19.126Z,100653.03
2023-03-06T07:06:45.720Z,100654.91
2023-03-06T07:09:13.437Z,100658.44
2023-03-06T07:11:41.015Z,100655.44
2023-03-06T07:14:08.032Z,100664.16
2023-03-06T07:16:34.922Z,100659.22
2023-03-06T07:19:01.499Z,100662.75
2023-03-06T07:21:28.063Z,100665.22
2023-03-06T07:23:57.646Z,100659.78
2023-03-06T07:26:28.077Z,100667.94
2023-03-06T07:28:55.001Z,100655.97
2023-03-06T07:31:25.346Z,100660.31
2023-03-06T07:33:53.451Z,100655.16
2023-03-06T07:36:20.729Z,100657.59
2023-03-06T07:38:47.328Z,100659.50
2023-03-06T07:41:16.342Z,100651.63
2023-03-06T07:43:44.956Z,100647.81
2023-03-06T07:46:12.807Z,100655.97
2023-03-06T07:48:39.936Z,100655.69
2023-03-06T07:51:11.673Z,100650.25
2023-03-06T07:53:38.257Z,100649.44
2023-03-06T07:56:08.970Z,100656.53
2023-03-06T07:58:36.817Z,100647.53
2023-03-06T08:01:05.342Z,100642.09
2023-03-06T08:03:32.682Z,100639.13
2023-03-06T08:06:16.815Z,100642.66
2023-03-06T08:08:45.396Z,100658.94
2023-03-06T08:11:13.467Z,100649.19
2023-03-06T08:13:40.816Z,100655.69
2023-03-06T08:16:08.055Z,100651.91
2023-03-06T08:18:35.438Z,100658.13
2023-03-06T08:21:17.118Z,100678.25
2023-03-06T08:23:44.373Z,100672.81
2023-03-06T08:26:14.529Z,100674.69
2023-03-06T08:28:41.396Z,100671.97
2023-03-06T08:31:11.730Z,100667.91
2023-03-06T08:33:39.209Z,100668.72
2023-03-06T08:36:06.067Z,100674.13
2023-03-06T08:38:32.660Z,100667.59
2023-03-06T08:40:59.256Z,100665.72
2023-03-06T08:43:25.869Z,100668.44
2023-03-06T08:45:57.681Z,100664.91
2023-03-06T08:48:25.255Z,100664.91
2023-03-06T08:50:52.071Z,100660.31
2023-03-06T08:53:18.740Z,100665.72
2023-03-06T08:55:45.485Z,100674.69
2023-03-06T08:58:12.179Z,100661.13
2023-03-06T09:00:39.322Z,100664.63
2023-03-06T09:03:06.197Z,100666.53
2023-03-06T09:05:33.031Z,100667.34
2023-03-06T09:07:59.599Z,100658.41
2023-03-06T09:10:26.813Z,100658.91
2023-03-06T09:12:55.030Z,100653.47
2023-03-06T09:15:22.906Z,100658.91
2023-03-06T09:17:51.035Z,100667.88
2023-03-06T09:20:18.889Z,100660.00
2023-03-06T09:22:45.883Z,100661.63
2023-03-06T09:25:14.163Z,100663.28
2023-03-06T09:27:41.089Z,100654.84
2023-03-06T09:30:08.931Z,100657.00
2023-03-06T09:32:35.679Z,100650.19
2023-03-06T09:35:02.209Z,100662.69
2023-03-06T09:37:28.771Z,100652.66
2023-03-06T09:39:55.362Z,100654.25
2023-03-06T09:42:23.749Z,100652.66
2023-03-06T09:45:00.233Z,100640.69
2023-03-06T09:47:49.318Z,100649.63
2023-03-06T09:50:31.144Z,100645.00
2023-03-06T09:53:19.357Z,100648.56
2023-03-06T09:55:58.202Z,100650.44
2023-03-06T09:58:27.365Z,100645.00
2023-03-06T10:00:53.868Z,100649.38
2023-03-06T10:03:52.874Z,100642.03
2023-03-06T10:06:31.157Z,100641.75
2023-03-06T10:09:12.309Z,100638.19
2023-03-06T10:11:58.710Z,100642.81
2023-03-06T10:14:43.900Z,100631.38
2023-03-06T10:17:35.373Z,100635.22
2023-03-06T10:20:09.188Z,100633.00
2023-03-06T10:22:46.098Z,100618.63
2023-03-06T10:25:14.429Z,100630.28
2023-03-06T10:27:50.593Z,100624.06
2023-03-06T10:30:59.159Z,100619.16
2023-03-06T10:33:47.296Z,100621.06
2023-03-06T10:36:19.090Z,100611.00
2023-03-06T10:38:48.773Z,100611.00
2023-03-06T10:41:36.610Z,100620.78
2023-03-06T10:44:03.083Z,100615.34
2023-03-06T10:46:39.311Z,100609.09
2023-03-06T10:49:31.091Z,100609.09
2023-03-06T10:52:21.966Z,100604.47
2023-03-06T10:54:48.621Z,100606.91
2023-03-06T10:57:27.350Z,100600.66
2023-03-06T10:59:56.546Z,100594.97
2023-03-06T11:02:32.757Z,100603.13
2023-03-06T11:05:01.373Z,100595.78
2023-03-06T11:07:35.359Z,100605.53
2023-03-06T11:10:18.174Z,100596.28
2023-03-06T11:12:57.483Z,100590.84
2023-03-06T11:15:25.817Z,100582.69
2023-03-06T11:18:25.935Z,100585.41
2023-03-06T11:20:55.337Z,100583.53
2023-03-06T11:23:47.354Z,100578.09
2023-03-06T11:26:24.620Z,100585.16
2023-03-06T11:29:00.298Z,100586.25
2023-03-06T11:31:54.404Z,100583.53
2023-03-06T11:34:56.375Z,100578.63
2023-03-06T11:37:25.976Z,100580.53
2023-03-06T11:40:12.272Z,100577.00
2023-03-06T11:42:57.369Z,100571.56
2023-03-06T11:45:45.249Z,100572.66
2023-03-06T11:48:14.858Z,100568.84
2023-03-06T11:50:42.729Z,100568.31
2023-03-06T11:53:37.991Z,100562.88
2023-03-06T11:56:10.447Z,100562.88
2023-03-06T11:59:04.722Z,100557.16
2023-03-06T12:01:57.652Z,100549.00
2023-03-06T12:04:27.241Z,100537.84
2023-03-06T12:07:12.205Z,100543.00
2023-03-06T12:10:02.044Z,100544.13
2023-03-06T12:12:53.758Z,100543.53
2023-03-06T12:15:32.308Z,100532.66
2023-03-06T12:18:26.795Z,100534.31
2023-03-06T12:21:25.545Z,100529.94
2023-03-06T12:24:01.887Z,100523.44
2023-03-06T12:26:51.183Z,100523.94
2023-03-06T12:29:40.526Z,100516.59
2023-03-06T12:32:14.878Z,100518.25
2023-03-06T12:34:41.589Z,100516.34
2023-03-06T12:37:36.026Z,100526.41
2023-03-06T12:40:34.907Z,100513.88
2023-03-06T12:43:10.410Z,100506.53
2023-03-06T12:45:38.264Z,100502.75
2023-03-06T12:48:15.205Z,100507.38
2023-03-06T12:50:44.535Z,100507.38
2023-03-06T12:53:21.582Z,100496.19
2023-03-06T12:55:49.778Z,100503.56
2023-03-06T12:58:28.613Z,100494.59
2023-03-06T13:01:36.833Z,100486.13
2023-03-06T13:04:18.355Z,100483.72
2023-03-06T13:06:55.030Z,100485.34
2023-03-06T13:09:27.352Z,100481.81
2023-03-06T13:12:08.377Z,100484.22
2023-03-06T13:14:54.768Z,100482.31
2023-03-06T13:17:26.423Z,100469.56
2023-03-06T13:20:14.815Z,100460.56
2023-03-06T13:22:46.661Z,100467.91
2023-03-06T13:25:19.305Z,100467.66
2023-03-06T13:27:53.324Z,100462.47
2023-03-06T13:30:22.075Z,100463.59
2023-03-06T13:32:52.953Z,100461.69
2023-03-06T13:35:42.562Z,100457.84
2023-03-06T13:38:37.672Z,100457.03
2023-03-06T13:41:22.597Z,100460.06
2023-03-06T13:43:56.872Z,100459.25
2023-03-06T13:46:28.708Z,100450.31
2023-03-06T13:49:10.636Z,100454.63
2023-03-06T13:51:40.068Z,100450.00
2023-03-06T13:54:43.982Z,100442.94
2023-03-06T13:57:25.688Z,100438.59
2023-03-06T14:00:09.480Z,100430.44
2023-03-06T14:03:10.623Z,100431.28
2023-03-06T14:05:48.033Z,100438.59
2023-03-06T14:08:24.884Z,100442.41
2023-03-06T14:11:20.720Z,100443.53
2023-03-06T14:13:54.357Z,100418.25
2023-03-06T14:16:27.846Z,100419.34
2023-03-06T14:18:57.242Z,100413.91
2023-03-06T14:21:30.913Z,100411.22
2023-03-06T14:24:00.641Z,100414.72
2023-03-06T14:26:31.876Z,100409.28
2023-03-06T14:29:00.558Z,100408.19
2023-03-06T14:31:37.498Z,100401.66
2023-03-06T14:34:14.100Z,100401.66
2023-03-06T14:36:49.220Z,100409.81
2023-03-06T14:39:23.439Z,100401.66
2023-03-06T14:41:49.991Z,100391.59
2023-03-06T14:44:21.933Z,100394.59
2023-03-06T14:46:51.856Z,100406.28
2023-03-06T14:49:20.642Z,100399.72
2023-03-06T14:51:50.399Z,100392.38
2023-03-06T14:54:24.817Z,100385.34
2023-03-06T14:56:55.531Z,100394.31
2023-03-06T14:59:26.692Z,100371.75
2023-03-06T15:02:01.066Z,100362.78
2023-03-06T15:04:45.925Z,100353.84
2023-03-06T15:07:19.505Z,100373.97
2023-03-06T15:09:50.246Z,100364.72
2023-03-06T15:12:22.815Z,100350.31
2023-03-06T15:15:03.725Z,100355.75
2023-03-06T15:17:32.521Z,100369.34
2023-03-06T15:20:01.118Z,100357.66
2023-03-06T15:22:43.504Z,100365.50
2023-03-06T15:25:24.187Z,100350.31
2023-03-06T15:27:55.577Z,100346.78
2023-03-06T15:30:36.399Z,100343.53
2023-03-06T15:33:21.886Z,100335.38
2023-03-06T15:36:05.198Z,100332.97
2023-03-06T15:38:34.041Z,100325.09
2023-03-06T15:41:02.066Z,100324.00
2023-03-06T15:43:34.909Z,100325.88
2023-03-06T15:46:01.855Z,100315.03
2023-03-06T15:48:28.904Z,100315.03
2023-03-06T15:50:55.485Z,100305.25
2023-03-06T15:53:22.091Z,100305.78
2023-03-06T15:55:50.107Z,100304.16
2023-03-06T15:58:20.646Z,100308.50
2023-03-06T16:00:47.068Z,100291.41
2023-03-06T16:03:13.576Z,100312.31
2023-03-06T16:05:40.128Z,100306.38
2023-03-06T16:08:07.121Z,100297.41
2023-03-06T16:10:39.049Z,100299.31
2023-03-06T16:13:16.168Z,100300.13
2023-03-06T16:15:50.328Z,100295.72
2023-03-06T16:18:17.356Z,100299.31
2023-03-06T16:20:43.983Z,100288.44
2023-03-06T16:23:10.720Z,100293.00
2023-03-06T16:25:39.959Z,100290.31
2023-03-06T16:28:12.158Z,100277.81
2023-03-06T16:30:38.922Z,100290.59
2023-03-06T16:33:05.605Z,100267.75
2023-03-06T16:35:32.360Z,100273.19
2023-03-06T16:38:00.088Z,100264.22
2023-03-06T16:40:37.688Z,100275.09
2023-03-06T16:43:05.613Z,100252.56
2023-03-06T16:45:36.491Z,100250.66
2023-03-06T16:48:03.102Z,100249.03
2023-03-06T16:50:33.089Z,100247.13
2023-03-06T16:52:59.667Z,100239.28
2023-03-06T16:55:27.313Z,100238.75
2023-03-06T16:57:54.713Z,100245.78
2023-03-06T17:00:24.555Z,100237.63
2023-03-06T17:02:52.685Z,100230.59
2023-03-06T17:05:19.914Z,100230.91
2023-03-06T17:07:46.929Z,100232.81
2023-03-06T17:10:15.723Z,100236.31
2023-03-06T17:12:43.556Z,100233.63
2023-03-06T17:15:11.380Z,100225.47
2023-03-06T17:17:38.603Z,100222.75
2023-03-06T17:20:08.107Z,100212.94
2023-03-06T17:22:36.283Z,100213.25
2023-03-06T17:25:05.131Z,100201.59
2023-03-06T17:27:31.765Z,100208.63
2023-03-06T17:29:58.898Z,100195.34
2023-03-06T17:32:26.811Z,100198.88
2023-03-06T17:34:54.573Z,100199.97
2023-03-06T17:37:21.289Z,100196.44
2023-03-06T17:39:48.016Z,100176.34
2023-03-06T17:42:14.588Z,100174.72
2023-03-06T17:44:41.766Z,100173.09
2023-03-06T17:47:08.367Z,100164.13
2023-03-06T17:49:34.887Z,100169.56
2023-03-06T17:52:02.952Z,100162.22
2023-03-06T17:54:30.163Z,100157.59
2023-03-06T17:57:01.028Z,100163.03
2023-03-06T17:59:28.631Z,100150.53
2023-03-06T18:02:02.136Z,100149.44
2023-03-06T18:04:28.977Z,100150.53
2023-03-06T18:06:56.967Z,100138.56
2023-03-06T18:09:24.063Z,100140.47
2023-03-06T18:11:50.628Z,100139.69
2023-03-06T18:14:17.159Z,100140.78
2023-03-06T18:16:43.643Z,100132.63
2023-03-06T18:19:11.233Z,100129.91
2023-03-06T18:21:39.611Z,100121.25
2023-03-06T18:24:06.905Z,100122.03
2023-03-06T18:26:33.559Z,100116.63
2023-03-06T18:29:04.329Z,100113.91
2023-03-06T18:31:34.569Z,100100.31
2023-03-06T18:34:03.699Z,100094.06
2023-03-06T18:36:31.999Z,100095.72
2023-03-06T18:38:59.271Z,100083.22
2023-03-06T18:41:25.862Z,100076.16
2023-03-06T18:43:54.522Z,100066.91
2023-03-06T18:46:21.634Z,100065.00
2023-03-06T18:48:48.636Z,100060.69
2023-03-06T18:51:15.968Z,100065.31
2023-03-06T18:53:43.598Z,100059.06
2023-03-06T18:56:16.708Z,100063.69
2023-03-06T18:58:43.992Z,100052.03
2023-03-06T19:01:10.967Z,100051.19
2023-03-06T19:03:37.662Z,100037.13
2023-03-06T19:06:12.658Z,100043.34
2023-03-06T19:08:40.398Z,100050.69
2023-03-06T19:11:09.854Z,100042.56
2023-03-06T19:13:36.454Z,100049.59
2023-03-06T19:16:03.358Z,100052.31
2023-03-06T19:18:30.405Z,100034.09
2023-03-06T19:21:08.365Z,100033.03
2023-03-06T19:23:35.130Z,100031.09
2023-03-06T19:26:01.687Z,100031.91
2023-03-06T19:28:28.477Z,100025.66
2023-03-06T19:30:55.073Z,100027.59
2023-03-06T19:33:21.725Z,100019.44
2023-03-06T19:35:48.401Z,100020.50
2023-03-06T19:38:15.561Z,100016.72
2023-03-06T19:40:49.441Z,100009.66
2023-03-06T19:43:16.038Z,100010.44
2023-03-06T19:45:44.119Z,100018.59
2023-03-06T19:48:12.546Z,100015.88
2023-03-06T19:50:41.857Z,100008.84
2023-03-06T19:53:08.466Z,100008.03
2023-03-06T19:55:35.058Z,100004.22
2023-03-06T19:58:01.875Z,100010.75
2023-03-06T20:00:28.572Z,100008.84
2023-03-06T20:02:55.512Z,100001.50
2023-03-06T20:05:22.353Z,99997.19
2023-03-06T20:07:49.555Z,99995.56
2023-03-06T20:10:16.345Z,99992.84
2023-03-06T20:12:42.895Z,99983.91
2023-03-06T20:15:09.951Z,99981.19
2023-03-06T20:17:39.792Z,99994.78
2023-03-06T20:20:08.667Z,99992.34
2023-03-06T20:22:35.328Z,99982.28
2023-03-06T20:25:02.723Z,99975.22
2023-03-06T20:27:29.249Z,99987.69
2023-03-06T20:29:55.796Z,99984.97
2023-03-06T20:32:22.346Z,99983.09
2023-03-06T20:34:49.122Z,99973.31
2023-03-06T20:37:15.761Z,99976.03
2023-03-06T20:39:42.308Z,99963.25
2023-03-06T20:42:08.842Z,99958.66
2023-03-06T20:44:36.191Z,99946.97
2023-03-06T20:47:02.738Z,99958.66
2023-03-06T20:49:29.271Z,99947.78
2023-03-06T20:51:56.668Z,99942.63
2023-03-06T20:54:23.453Z,99944.25
2023-03-06T20:56:50.466Z,99958.94
2023-03-06T20:59:17.159Z,99953.50
2023-03-06T21:01:45.516Z,99968.19
2023-03-06T21:04:14.069Z,99971.72
2023-03-06T21:06:45.272Z,99962.75
2023-03-06T21:09:13.171Z,99961.16
2023-03-06T21:11:40.128Z,99959.25
2023-03-06T21:14:07.107Z,99951.91
2023-03-06T21:16:33.767Z,99964.38
2023-03-06T21:19:00.603Z,99952.19
2023-03-06T21:21:32.859Z,99949.47
2023-03-06T21:23:59.711Z,99952.19
2023-03-06T21:26:29.140Z,99942.44
2023-03-06T21:28:59.589Z,99938.09
2023-03-06T21:31:28.379Z,99946.25
2023-03-06T21:33:55.160Z,99938.38
2023-03-06T21:36:22.547Z,99939.50
2023-03-06T21:38:50.225Z,99942.19
2023-03-06T21:41:24.822Z,99936.28
2023-03-06T21:43:55.666Z,99940.59
2023-03-06T21:46:22.505Z,99930.03
2023-03-06T21:48:49.254Z,99927.59
2023-03-06T21:51:23.406Z,99919.47
2023-03-06T21:53:52.060Z,99922.19
2023-03-06T21:56:20.716Z,99920.56
2023-03-06T21:58:47.433Z,99921.69
2023-03-06T22:01:19.744Z,99917.84
2023-03-06T22:03:46.557Z,99915.13
2023-03-06T22:06:16.318Z,99914.34
2023-03-06T22:08:43.908Z,99909.19
2023-03-06T22:11:13.404Z,99900.22
2023-03-06T22:13:40.416Z,99902.16
2023-03-06T22:16:07.814Z,99897.81
2023-03-06T22:18:35.524Z,99892.69
2023-03-06T22:21:10.353Z,99891.06
2023-03-06T22:23:37.187Z,99889.16
2023-03-06T22:26:10.349Z,99893.78
2023-03-06T22:28:36.952Z,99903.03
2023-03-06T22:31:18.608Z,99897.09
2023-03-06T22:33:45.472Z,99897.88
2023-03-06T22:36:14.336Z,99901.44
2023-03-06T22:38:42.900Z,99912.56
2023-03-06T22:41:10.681Z,99903.63
2023-03-06T22:43:37.469Z,99907.13
2023-03-06T22:46:09.546Z,99901.22
2023-03-06T22:48:36.224Z,99895.78
2023-03-06T22:51:09.354Z,99906.13
2023-03-06T22:53:36.800Z,99897.16
2023-03-06T22:56:06.344Z,99903.41
2023-03-06T22:58:36.970Z,99902.06
2023-03-06T23:01:05.926Z,99882.28
2023-03-06T23:03:32.603Z,99890.41
2023-03-06T23:05:59.148Z,99899.66
2023-03-06T23:08:25.667Z,99890.72
2023-03-06T23:10:52.287Z,99882.84
2023-03-06T23:13:18.803Z,99897.25
2023-03-06T23:15:45.354Z,99894.53
2023-03-06T23:18:11.876Z,99894.03
2023-03-06T23:20:44.856Z,99898.91
2023-03-06T23:23:11.841Z,99891.88
2023-03-06T23:25:38.974Z,99893.78
2023-03-06T23:28:05.563Z,99892.19
2023-03-06T23:30:32.043Z,99884.84
2023-03-06T23:32:58.554Z,99882.94
2023-03-06T23:35:25.587Z,99886.75
2023-03-06T23:37:52.072Z,99889.75
2023-03-06T23:40:18.579Z,99875.38
2023-03-06T23:42:45.099Z,99890.06
2023-03-06T23:45:11.948Z,99886.75
2023-03-06T23:47:38.478Z,99896.00
2023-03-06T23:50:05.395Z,99891.66
2023-03-06T23:52:31.905Z,99891.38
2023-03-06T23:54:58.399Z,99880.00
2023-03-06T23:57:25.094Z,99883.53
2023-03-06T23:59:51.645Z,99887.34
